Ocean Celebrity — HOSZ — position and weather

sailwx.info

Track history (hours):
 
Tides and Currents Weather Stations Pressure Air Temp Water Temp Dewpoint Dewpoint Depression Visibility Wind Speed Wind Dir Waves Ship Positions

Ocean Celebrity

Last reported at 2014-Oct-14 00:24 UTC. Time now 2014-Oct-25 16:51 UTC.
Position N 01°16' E 104°08'.
Warning: this ship's position is 11 days out of date.

Length 289 m; draft 17.7 m.

Type: Cargo ship. MMSI: 356712000.

Date/timePositionNaut miles runAvg speedWind from/ knotsBaromVisibWave heightAir tempDewpointWater temp
2014-Oct-14 00:24N 01°16' E 104°08'3 1.0
2014-Oct-13 21:06N 01°18' E 104°05'0 0.1
2014-Oct-13 20:30N 01°18' E 104°05'0 0.0
2014-Oct-13 16:12N 01°18' E 104°05'0 0.2
2014-Oct-13 15:12N 01°18' E 104°05'0 0.2
2014-Oct-13 14:24N 01°18' E 104°05'0 0.0
2014-Oct-13 13:24N 01°18' E 104°05'0 0.0
2014-Oct-13 12:21N 01°18' E 104°05'0 0.0
2014-Oct-13 10:15N 01°18' E 104°05'0 0.0
2014-Oct-13 08:33N 01°18' E 104°05'0 0.1
2014-Oct-13 07:33N 01°18' E 104°05'0 0.4
2014-Oct-13 06:31N 01°18' E 104°05'3 2.5
2014-Oct-13 05:15N 01°15' E 104°03'7 9.4
2014-Oct-13 04:33N 01°14' E 103°57'9 8.6
2014-Oct-13 03:33N 01°11' E 103°49'8 7.8
2014-Oct-13 02:33N 01°06' E 103°43'  
Track history (hours):
 
Tides and Currents Weather Stations Pressure Air Temp Water Temp Dewpoint Dewpoint Depression Visibility Wind Speed Wind Dir Waves Ship Positions

Ocean Celebrity

Last reported at 2014-Oct-14 00:24 UTC. Time now 2014-Oct-25 16:51 UTC.
Position N 01°16' E 104°08'.
Warning: this ship's position is 11 days out of date.

Length 289 m; draft 17.7 m.

Type: Cargo ship. MMSI: 356712000.

Date/timePositionNaut miles runAvg speedWind from/ knotsBaromVisibWave heightAir tempDewpointWater temp
2014-Oct-14 00:24N 01°16' E 104°08'3 1.0
2014-Oct-13 21:06N 01°18' E 104°05'0 0.1
2014-Oct-13 20:30N 01°18' E 104°05'0 0.0
2014-Oct-13 16:12N 01°18' E 104°05'0 0.2
2014-Oct-13 15:12N 01°18' E 104°05'0 0.2
2014-Oct-13 14:24N 01°18' E 104°05'0 0.0
2014-Oct-13 13:24N 01°18' E 104°05'0 0.0
2014-Oct-13 12:21N 01°18' E 104°05'0 0.0
2014-Oct-13 10:15N 01°18' E 104°05'0 0.0
2014-Oct-13 08:33N 01°18' E 104°05'0 0.1
2014-Oct-13 07:33N 01°18' E 104°05'0 0.4
2014-Oct-13 06:31N 01°18' E 104°05'3 2.5
2014-Oct-13 05:15N 01°15' E 104°03'7 9.4
2014-Oct-13 04:33N 01°14' E 103°57'9 8.6
2014-Oct-13 03:33N 01°11' E 103°49'8 7.8
2014-Oct-13 02:33N 01°06' E 103°43'  

Dump ship's entire track history